Time;durP1;ratioP1;P1;durP2;ratioP2;P2;SDS_P1;SDS_P2;PMS_P1;PMS_P2;Temp;Humidity;BMP_temperature;BMP_pressure;BME280_temperature;BME280_humidity;BME280_pressure;Samples;Min_cycle;Max_cycle;Signal;HPM_P1;HPM_P2
2023/12/04 00:01:53;;;;;;;19.20;12.70;;;-3.80;99.90;;;;;;5066878;22;20279;-73
2023/12/04 00:04:18;;;;;;;21.10;13.60;;;-3.80;99.90;;;;;;5028674;28;20433;-74
2023/12/04 00:06:44;;;;;;;22.13;14.83;;;-3.80;99.90;;;;;;5037818;28;20698;-73
2023/12/04 00:09:09;;;;;;;23.33;16.60;;;-3.70;99.90;;;;;;5036179;28;20198;-73
2023/12/04 00:11:35;;;;;;;23.80;15.13;;;-3.80;99.90;;;;;;5037779;28;20198;-73
2023/12/04 00:14:00;;;;;;;19.37;14.80;;;-3.80;99.90;;;;;;5012901;28;20187;-73
2023/12/04 00:16:26;;;;;;;23.93;14.30;;;-3.80;99.90;;;;;;5015158;28;20194;-73
2023/12/04 00:18:52;;;;;;;23.57;15.07;;;-3.80;99.90;;;;;;5010838;28;20179;-73
2023/12/04 00:21:17;;;;;;;15.40;12.67;;;-3.90;99.90;;;;;;5020203;28;20190;-73
2023/12/04 00:23:43;;;;;;;19.60;13.77;;;-3.90;99.90;;;;;;5015921;28;20206;-73
2023/12/04 00:26:08;;;;;;;18.73;13.50;;;-3.90;99.90;;;;;;5022168;28;20610;-73
2023/12/04 00:28:36;;;;;;;17.67;13.83;;;-3.90;99.90;;;;;;5019047;28;20183;-73
2023/12/04 00:31:02;;;;;;;18.30;14.57;;;-4.00;99.90;;;;;;5024581;28;20211;-72
2023/12/04 00:33:28;;;;;;;16.97;13.37;;;-4.00;99.90;;;;;;5021751;28;20939;-73
2023/12/04 00:35:53;;;;;;;22.93;12.60;;;-4.10;99.90;;;;;;5019512;28;20193;-73
2023/12/04 00:38:19;;;;;;;20.47;12.40;;;-4.00;99.90;;;;;;5025520;28;20183;-72
2023/12/04 00:40:44;;;;;;;21.03;14.10;;;-4.00;99.90;;;;;;5019240;28;20206;-72
2023/12/04 00:43:10;;;;;;;22.43;13.70;;;-3.90;99.90;;;;;;5022445;28;20202;-72
2023/12/04 00:45:35;;;;;;;19.50;13.80;;;-3.90;99.90;;;;;;5013385;28;20244;-73
2023/12/04 00:48:02;;;;;;;18.30;12.83;;;-3.90;99.90;;;;;;5018819;28;20187;-73
2023/12/04 00:50:27;;;;;;;16.93;13.30;;;-3.90;99.90;;;;;;5023523;28;20189;-72
2023/12/04 00:52:54;;;;;;;21.23;13.00;;;-3.90;99.90;;;;;;5025248;28;20552;-72
2023/12/04 00:55:19;;;;;;;18.20;12.77;;;-3.90;99.90;;;;;;5025426;28;20174;-73
2023/12/04 00:57:45;;;;;;;18.30;12.60;;;-3.90;99.90;;;;;;5025237;28;20492;-72
2023/12/04 01:00:11;;;;;;;19.53;13.57;;;-3.90;99.90;;;;;;5015280;28;20833;-71
2023/12/04 01:02:37;;;;;;;19.90;13.37;;;-4.00;99.90;;;;;;5022127;28;20297;-71
2023/12/04 01:05:03;;;;;;;18.10;13.57;;;-4.00;99.90;;;;;;5029826;28;20473;-72
2023/12/04 01:07:29;;;;;;;21.47;13.60;;;-4.10;99.90;;;;;;5023563;28;20648;-71
2023/12/04 01:09:54;;;;;;;19.10;12.63;;;-4.10;99.90;;;;;;5018442;28;20211;-71
2023/12/04 01:12:21;;;;;;;18.77;11.60;;;-4.00;99.90;;;;;;5022789;28;20831;-72
2023/12/04 01:14:46;;;;;;;20.53;13.23;;;-4.00;99.90;;;;;;5024964;28;20190;-72
2023/12/04 01:17:12;;;;;;;21.10;13.50;;;-4.00;99.90;;;;;;5021362;28;20444;-72
2023/12/04 01:19:37;;;;;;;22.43;13.60;;;-3.90;99.90;;;;;;5027923;28;20198;-72
2023/12/04 01:22:03;;;;;;;17.70;12.80;;;-3.90;99.90;;;;;;5018027;28;20206;-72
2023/12/04 01:24:28;;;;;;;21.83;13.73;;;-3.90;99.90;;;;;;5028907;28;20170;-72
2023/12/04 01:26:54;;;;;;;18.00;13.27;;;-3.80;99.90;;;;;;5022831;28;20232;-72
2023/12/04 01:29:19;;;;;;;17.40;13.00;;;-3.80;99.90;;;;;;5026870;28;20198;-72
2023/12/04 01:31:45;;;;;;;17.53;12.40;;;-3.70;99.90;;;;;;5021190;28;20209;-72
2023/12/04 01:34:11;;;;;;;20.30;13.83;;;-3.70;99.90;;;;;;5029361;28;20253;-72
2023/12/04 01:36:40;;;;;;;22.20;13.87;;;-3.70;99.90;;;;;;5013080;28;20189;-71
2023/12/04 01:39:06;;;;;;;19.60;12.77;;;-3.80;99.90;;;;;;5018232;28;20258;-72
2023/12/04 01:41:31;;;;;;;17.97;12.60;;;-3.80;99.90;;;;;;5021351;28;20543;-71
2023/12/04 01:43:57;;;;;;;20.23;13.00;;;-3.80;99.90;;;;;;5020320;28;20186;-71
2023/12/04 01:46:22;;;;;;;17.57;13.67;;;-3.90;99.90;;;;;;5014348;28;20190;-71
2023/12/04 01:48:49;;;;;;;17.63;12.77;;;-3.90;99.90;;;;;;5017212;28;20186;-71
2023/12/04 01:51:16;;;;;;;17.70;12.93;;;-4.00;99.90;;;;;;5015111;28;20312;-72
2023/12/04 01:53:43;;;;;;;19.67;12.70;;;-4.10;99.90;;;;;;5024041;28;20438;-71
2023/12/04 01:56:09;;;;;;;26.23;12.27;;;-4.20;99.90;;;;;;5022749;28;20926;-71
2023/12/04 01:58:35;;;;;;;19.63;13.93;;;-4.30;99.90;;;;;;5006513;28;20469;-71
2023/12/04 02:01:01;;;;;;;18.83;13.27;;;-4.30;99.90;;;;;;5019672;28;20827;-71
2023/12/04 02:03:27;;;;;;;18.80;12.20;;;-4.30;99.90;;;;;;5013699;28;20284;-70
2023/12/04 02:05:53;;;;;;;22.93;14.23;;;-4.30;99.90;;;;;;5020191;28;20465;-72
2023/12/04 02:08:18;;;;;;;17.93;13.07;;;-4.30;99.90;;;;;;5010507;28;20265;-71
2023/12/04 02:10:44;;;;;;;18.17;12.27;;;-4.30;99.90;;;;;;5019153;28;20529;-71
2023/12/04 02:13:10;;;;;;;17.87;12.07;;;-4.30;99.90;;;;;;5018517;28;20218;-71
2023/12/04 02:15:36;;;;;;;18.60;13.30;;;-4.30;99.90;;;;;;5022502;28;20614;-71
2023/12/04 02:18:03;;;;;;;18.43;12.87;;;-4.30;99.90;;;;;;5014988;28;20453;-71
2023/12/04 02:20:35;;;;;;;18.90;12.27;;;-4.30;99.90;;;;;;5022837;28;20225;-71
2023/12/04 02:23:02;;;;;;;19.27;12.80;;;-4.40;99.90;;;;;;5018670;28;20445;-71
2023/12/04 02:25:28;;;;;;;21.17;12.40;;;-4.40;99.90;;;;;;5021352;28;20445;-71
2023/12/04 02:27:55;;;;;;;22.23;13.03;;;-4.40;99.90;;;;;;5014997;28;20498;-70
2023/12/04 02:30:24;;;;;;;15.30;11.63;;;-4.40;99.90;;;;;;5021717;28;20445;-71
2023/12/04 02:32:51;;;;;;;19.10;13.20;;;-4.40;99.90;;;;;;5015234;28;20457;-72
2023/12/04 02:35:21;;;;;;;21.20;13.03;;;-4.40;99.90;;;;;;5024265;28;20440;-72
2023/12/04 02:37:47;;;;;;;18.90;13.17;;;-4.40;99.90;;;;;;5025533;28;20441;-72
2023/12/04 02:40:13;;;;;;;19.23;12.13;;;-4.40;99.90;;;;;;5014415;28;20800;-71
2023/12/04 02:42:39;;;;;;;20.57;13.47;;;-4.30;99.90;;;;;;5019001;28;20826;-71
2023/12/04 02:45:05;;;;;;;16.50;11.50;;;-4.30;99.90;;;;;;5014130;28;20946;-71
2023/12/04 02:47:30;;;;;;;18.10;12.50;;;-4.20;99.90;;;;;;5016445;28;20512;-71
2023/12/04 02:49:56;;;;;;;18.47;13.53;;;-4.10;99.90;;;;;;5016637;28;20429;-72
2023/12/04 02:52:22;;;;;;;23.00;13.30;;;-4.10;99.90;;;;;;5014886;28;20206;-71
2023/12/04 02:54:47;;;;;;;16.10;12.97;;;-4.10;99.90;;;;;;5018030;28;20669;-71
2023/12/04 02:57:12;;;;;;;20.00;13.03;;;-4.10;99.90;;;;;;5020298;28;20187;-72
2023/12/04 02:59:38;;;;;;;17.70;11.80;;;-4.20;99.90;;;;;;5015031;28;20213;-72
2023/12/04 03:02:04;;;;;;;18.27;12.53;;;-4.20;99.90;;;;;;5017443;28;20218;-72
2023/12/04 03:04:30;;;;;;;17.00;12.00;;;-4.20;99.90;;;;;;5014028;28;20183;-72
2023/12/04 03:06:56;;;;;;;16.90;12.50;;;-4.30;99.90;;;;;;5013900;28;20186;-72
2023/12/04 03:09:21;;;;;;;18.63;12.87;;;-4.20;99.90;;;;;;5031095;28;20903;-71
2023/12/04 03:11:47;;;;;;;18.03;12.23;;;-4.20;99.90;;;;;;5032354;28;20205;-71
2023/12/04 03:14:12;;;;;;;20.37;12.70;;;-4.20;99.90;;;;;;5016395;28;20210;-70
2023/12/04 03:16:38;;;;;;;16.07;9.70;;;-4.30;99.90;;;;;;5022528;28;20252;-72
2023/12/04 03:19:04;;;;;;;19.17;10.73;;;-4.30;99.90;;;;;;5028373;28;20260;-71
2023/12/04 03:21:29;;;;;;;20.43;10.87;;;-4.30;99.90;;;;;;5014380;28;20206;-71
2023/12/04 03:23:55;;;;;;;17.50;11.10;;;-4.30;99.90;;;;;;5013622;28;20228;-71
2023/12/04 03:26:20;;;;;;;18.03;12.30;;;-4.30;99.90;;;;;;5017732;28;20179;-71
2023/12/04 03:28:46;;;;;;;16.60;11.67;;;-4.30;99.90;;;;;;5021493;28;20206;-71
2023/12/04 03:31:11;;;;;;;21.20;13.80;;;-4.30;99.90;;;;;;5013477;28;20194;-72
2023/12/04 03:33:37;;;;;;;21.33;14.07;;;-4.20;99.90;;;;;;5019790;28;20187;-71
2023/12/04 03:36:03;;;;;;;21.63;12.80;;;-4.10;99.90;;;;;;5014522;28;20183;-71
2023/12/04 03:38:28;;;;;;;25.27;15.60;;;-4.10;99.90;;;;;;5021351;28;20185;-70
2023/12/04 03:40:54;;;;;;;20.33;12.67;;;-4.10;99.90;;;;;;5013510;28;20453;-71
2023/12/04 03:43:19;;;;;;;18.57;12.53;;;-4.10;99.90;;;;;;5021801;28;20191;-71
2023/12/04 03:45:45;;;;;;;20.20;13.00;;;-4.00;99.90;;;;;;5015392;28;20198;-70
2023/12/04 03:48:10;;;;;;;18.20;11.23;;;-4.00;99.90;;;;;;5008104;28;20221;-71
2023/12/04 03:50:36;;;;;;;20.53;11.10;;;-4.00;99.90;;;;;;5026551;28;20547;-72
2023/12/04 03:53:02;;;;;;;15.70;11.77;;;-3.90;99.90;;;;;;5021829;28;20689;-71
2023/12/04 03:55:28;;;;;;;15.90;11.20;;;-3.80;99.90;;;;;;5033393;28;20177;-72
2023/12/04 03:57:54;;;;;;;16.60;11.63;;;-3.80;99.90;;;;;;5018507;28;20780;-71
2023/12/04 04:00:20;;;;;;;15.10;10.97;;;-3.80;99.90;;;;;;5012432;28;20235;-71
2023/12/04 04:02:45;;;;;;;18.03;11.70;;;-3.70;99.90;;;;;;5013023;28;21009;-71
2023/12/04 04:05:11;;;;;;;14.77;10.70;;;-3.70;99.90;;;;;;5019353;28;20178;-71
2023/12/04 04:07:36;;;;;;;18.40;13.17;;;-3.80;99.90;;;;;;5010425;28;20263;-71
2023/12/04 04:10:04;;;;;;;16.87;11.23;;;-3.80;99.90;;;;;;5011475;28;20191;-71
2023/12/04 04:12:29;;;;;;;17.50;12.20;;;-3.80;99.90;;;;;;5019248;28;20201;-71
2023/12/04 04:14:55;;;;;;;14.33;10.13;;;-3.70;99.90;;;;;;5021028;28;20417;-71
2023/12/04 04:17:20;;;;;;;16.43;10.30;;;-3.70;99.90;;;;;;5011058;28;20187;-72
2023/12/04 04:19:46;;;;;;;14.30;10.40;;;-3.70;99.90;;;;;;5018236;28;20207;-70
2023/12/04 04:22:12;;;;;;;19.67;11.40;;;-3.70;99.90;;;;;;5021616;28;20732;-71
2023/12/04 04:24:37;;;;;;;16.80;9.70;;;-3.70;99.90;;;;;;5011400;28;20257;-71
2023/12/04 04:27:03;;;;;;;15.10;11.43;;;-3.70;99.90;;;;;;5020494;28;20190;-70
2023/12/04 04:29:28;;;;;;;14.70;10.50;;;-3.70;99.90;;;;;;5011160;28;20183;-72
2023/12/04 04:31:54;;;;;;;14.57;9.30;;;-3.70;99.90;;;;;;5017832;28;20194;-71
2023/12/04 04:34:21;;;;;;;21.90;11.80;;;-3.80;99.90;;;;;;5026696;28;20651;-70
2023/12/04 04:36:47;;;;;;;17.07;11.47;;;-3.80;99.90;;;;;;5018830;28;20179;-71
2023/12/04 04:39:13;;;;;;;20.63;12.90;;;-3.90;99.90;;;;;;5015817;28;20452;-71
2023/12/04 04:41:39;;;;;;;17.27;11.63;;;-3.90;99.90;;;;;;5022762;28;20218;-72
2023/12/04 04:44:05;;;;;;;15.97;10.57;;;-3.80;99.90;;;;;;5025742;28;20981;-70
2023/12/04 04:46:31;;;;;;;17.40;11.30;;;-3.80;99.90;;;;;;5018318;28;20521;-70
2023/12/04 04:48:57;;;;;;;16.40;10.87;;;-3.70;99.90;;;;;;5020488;28;20505;-70
2023/12/04 04:51:23;;;;;;;21.13;12.10;;;-3.70;99.90;;;;;;5012740;28;20528;-70
2023/12/04 04:53:49;;;;;;;13.37;10.97;;;-3.70;99.90;;;;;;5019788;28;20266;-70
2023/12/04 04:56:15;;;;;;;18.83;12.00;;;-3.60;99.90;;;;;;5030125;28;20619;-73
2023/12/04 04:58:40;;;;;;;16.00;11.10;;;-3.50;99.90;;;;;;5022387;28;20472;-70
2023/12/04 05:01:06;;;;;;;13.10;10.83;;;-3.50;99.90;;;;;;5012159;28;20215;-71
2023/12/04 05:03:32;;;;;;;15.07;9.57;;;-3.50;99.90;;;;;;5022549;28;20206;-70
2023/12/04 05:05:57;;;;;;;14.40;10.00;;;-3.50;99.90;;;;;;5012311;28;20439;-70
2023/12/04 05:08:23;;;;;;;13.77;9.60;;;-3.50;99.90;;;;;;5011566;28;20246;-70
2023/12/04 05:10:48;;;;;;;13.73;9.50;;;-3.50;99.90;;;;;;5009803;28;20671;-71
2023/12/04 05:13:14;;;;;;;13.87;10.50;;;-3.50;99.90;;;;;;5022617;28;20206;-71
2023/12/04 05:15:40;;;;;;;14.90;10.50;;;-3.50;99.90;;;;;;5026731;28;20236;-72
2023/12/04 05:18:05;;;;;;;10.77;8.37;;;-3.40;99.90;;;;;;5018026;28;20182;-70
2023/12/04 05:20:31;;;;;;;13.47;9.53;;;-3.40;99.90;;;;;;5018223;28;20205;-71
2023/12/04 05:22:59;;;;;;;14.30;10.63;;;-3.40;99.90;;;;;;5012095;28;20202;-70
2023/12/04 05:25:25;;;;;;;14.90;9.80;;;-3.40;99.90;;;;;;5012055;28;20213;-71
2023/12/04 05:27:50;;;;;;;13.87;9.60;;;-3.40;99.90;;;;;;5023037;28;20860;-70
2023/12/04 05:30:16;;;;;;;15.53;9.60;;;-3.40;99.90;;;;;;5014101;28;20257;-71
2023/12/04 05:32:41;;;;;;;16.60;9.70;;;-3.40;99.90;;;;;;5016883;28;20260;-70
2023/12/04 05:35:07;;;;;;;19.43;10.20;;;-3.50;99.90;;;;;;5020831;28;20260;-72
2023/12/04 05:37:32;;;;;;;16.80;10.73;;;-3.50;99.90;;;;;;5018020;28;20705;-72
2023/12/04 05:39:58;;;;;;;14.87;9.97;;;-3.50;99.90;;;;;;5011936;28;20237;-72
2023/12/04 05:42:24;;;;;;;13.07;10.30;;;-3.50;99.90;;;;;;5011028;28;20212;-71
2023/12/04 05:44:49;;;;;;;12.30;8.27;;;-3.50;99.90;;;;;;5015256;28;20567;-71
2023/12/04 05:47:15;;;;;;;14.43;10.13;;;-3.50;99.90;;;;;;5013116;28;20222;-73
2023/12/04 05:49:40;;;;;;;13.90;10.97;;;-3.50;99.90;;;;;;5015117;28;20199;-72
2023/12/04 05:52:06;;;;;;;14.67;11.47;;;-3.60;99.90;;;;;;5026564;28;20206;-71
2023/12/04 05:54:32;;;;;;;17.60;11.67;;;-3.60;99.90;;;;;;5020589;28;20448;-72
2023/12/04 05:56:58;;;;;;;15.60;11.30;;;-3.60;99.90;;;;;;5022644;28;20198;-72
2023/12/04 05:59:23;;;;;;;14.30;11.10;;;-3.60;99.90;;;;;;5017005;28;20295;-72
2023/12/04 06:01:49;;;;;;;12.17;10.07;;;-3.60;99.90;;;;;;5012111;28;20864;-69
2023/12/04 06:04:14;;;;;;;14.23;11.23;;;-3.60;99.90;;;;;;5032027;28;20190;-71
2023/12/04 06:06:40;;;;;;;19.50;10.90;;;-3.60;99.90;;;;;;5034196;28;20232;-71
2023/12/04 06:09:06;;;;;;;14.00;10.90;;;-3.60;99.90;;;;;;5029963;28;20221;-71
2023/12/04 06:11:31;;;;;;;17.47;10.93;;;-3.60;99.90;;;;;;5019550;28;20202;-71
2023/12/04 06:13:57;;;;;;;13.57;12.17;;;-3.60;99.90;;;;;;5026614;28;20600;-71
2023/12/04 06:16:22;;;;;;;12.20;10.23;;;-3.60;99.90;;;;;;5016617;28;20539;-71
2023/12/04 06:18:48;;;;;;;17.00;11.10;;;-3.50;99.90;;;;;;5022698;28;20182;-72
2023/12/04 06:21:14;;;;;;;14.73;11.40;;;-3.50;99.90;;;;;;5031858;28;20244;-70
2023/12/04 06:23:39;;;;;;;19.37;11.97;;;-3.40;99.90;;;;;;5027469;28;20194;-71
2023/12/04 06:26:06;;;;;;;14.53;10.23;;;-3.40;99.90;;;;;;5015074;28;20178;-71
2023/12/04 06:28:32;;;;;;;15.23;10.50;;;-3.30;99.90;;;;;;5020458;28;20186;-71
2023/12/04 06:30:58;;;;;;;15.90;12.13;;;-3.30;99.90;;;;;;5017204;28;20430;-71
2023/12/04 06:33:24;;;;;;;15.00;11.63;;;-3.20;99.90;;;;;;5015741;28;20476;-71
2023/12/04 06:35:50;;;;;;;16.40;11.13;;;-3.10;99.90;;;;;;5015802;28;20811;-71
2023/12/04 06:38:18;;;;;;;17.43;11.43;;;-3.10;99.90;;;;;;4994944;28;20179;-71
2023/12/04 06:40:44;;;;;;;19.20;12.60;;;-3.00;99.90;;;;;;4995083;28;20208;-72
2023/12/04 06:43:10;;;;;;;16.33;11.40;;;-3.00;99.90;;;;;;4995006;28;20537;-71
2023/12/04 06:45:35;;;;;;;21.60;11.33;;;-3.00;99.90;;;;;;5005893;28;20213;-71
2023/12/04 06:48:01;;;;;;;13.97;9.67;;;-2.90;99.90;;;;;;5014794;28;20250;-71
2023/12/04 06:50:27;;;;;;;16.00;10.17;;;-2.90;99.90;;;;;;5014502;28;20186;-71
2023/12/04 06:52:52;;;;;;;10.33;8.60;;;-2.90;99.90;;;;;;5015637;28;20191;-71
2023/12/04 06:55:18;;;;;;;13.40;10.30;;;-3.00;99.90;;;;;;5026739;28;20178;-71
2023/12/04 06:57:44;;;;;;;14.50;9.90;;;-3.10;99.90;;;;;;5033471;28;20178;-71
2023/12/04 07:00:14;;;;;;;16.10;10.07;;;-3.10;99.90;;;;;;5033996;28;20204;-72
2023/12/04 07:02:40;;;;;;;11.17;8.63;;;-3.00;99.90;;;;;;5030717;28;20206;-71
2023/12/04 07:05:06;;;;;;;17.47;11.20;;;-3.00;99.90;;;;;;5033935;28;20421;-71
2023/12/04 07:07:32;;;;;;;15.03;11.30;;;-2.90;99.90;;;;;;5020501;28;20179;-71
2023/12/04 07:09:57;;;;;;;14.40;10.53;;;-2.80;99.90;;;;;;5014077;28;20421;-71
2023/12/04 07:12:23;;;;;;;14.60;10.63;;;-2.80;99.90;;;;;;5014031;28;20187;-71
2023/12/04 07:14:48;;;;;;;15.23;11.47;;;-2.80;99.90;;;;;;5013963;28;20175;-71
2023/12/04 07:17:14;;;;;;;14.77;10.83;;;-2.80;99.90;;;;;;5013926;28;20257;-71
2023/12/04 07:19:41;;;;;;;17.50;12.03;;;-2.80;99.90;;;;;;5013850;28;20202;-71
2023/12/04 07:22:07;;;;;;;20.30;13.13;;;-2.70;99.90;;;;;;5014941;28;20668;-71
2023/12/04 07:24:32;;;;;;;18.13;11.90;;;-2.80;99.90;;;;;;5012729;28;20418;-71
2023/12/04 07:26:58;;;;;;;15.40;10.57;;;-2.80;99.90;;;;;;5013514;28;20167;-71
2023/12/04 07:29:24;;;;;;;18.70;11.83;;;-2.70;99.90;;;;;;5013766;28;20229;-71
2023/12/04 07:31:49;;;;;;;19.47;13.00;;;-2.50;99.90;;;;;;5013633;28;20223;-71
2023/12/04 07:34:15;;;;;;;13.67;10.97;;;-2.40;99.90;;;;;;5015000;28;20177;-71
2023/12/04 07:36:41;;;;;;;20.53;12.30;;;-2.40;99.90;;;;;;5013406;28;20238;-71
2023/12/04 07:39:06;;;;;;;18.40;12.83;;;-2.40;99.90;;;;;;5013586;28;20175;-71
2023/12/04 07:41:32;;;;;;;15.90;11.60;;;-2.40;99.90;;;;;;5013494;28;20183;-70
2023/12/04 07:43:58;;;;;;;19.63;11.67;;;-2.30;99.90;;;;;;5013533;28;20648;-71
2023/12/04 07:46:23;;;;;;;17.20;9.90;;;-2.40;99.90;;;;;;5013275;28;20669;-71
2023/12/04 07:48:49;;;;;;;13.23;9.50;;;-2.30;99.90;;;;;;5014406;28;20659;-71
2023/12/04 07:51:14;;;;;;;15.50;11.60;;;-2.30;99.90;;;;;;5013420;28;20171;-71
2023/12/04 07:53:40;;;;;;;15.07;11.80;;;-2.30;99.90;;;;;;5013428;28;20182;-71
2023/12/04 07:56:06;;;;;;;13.43;10.70;;;-2.40;99.90;;;;;;5013551;28;20254;-71
2023/12/04 07:58:32;;;;;;;14.80;10.90;;;-2.50;99.90;;;;;;5031434;28;20210;-71
2023/12/04 08:00:58;;;;;;;14.53;10.57;;;-2.60;99.90;;;;;;5026390;28;20555;-71
2023/12/04 08:03:23;;;;;;;16.27;10.80;;;-2.60;99.90;;;;;;5013921;28;20207;-71
2023/12/04 08:05:53;;;;;;;13.47;10.33;;;-2.70;99.90;;;;;;5032861;28;20417;-71
2023/12/04 08:08:18;;;;;;;18.73;10.43;;;-2.60;99.90;;;;;;5013217;28;20587;-71
2023/12/04 08:10:44;;;;;;;12.30;10.60;;;-2.50;99.90;;;;;;5012761;28;20430;-71
2023/12/04 08:13:10;;;;;;;13.67;10.43;;;-2.30;99.90;;;;;;5012001;28;20203;-71
2023/12/04 08:15:35;;;;;;;12.77;9.67;;;-2.10;99.90;;;;;;5012954;28;20625;-71
2023/12/04 08:18:01;;;;;;;13.20;11.13;;;-2.00;99.90;;;;;;5018769;28;20616;-71
2023/12/04 08:20:27;;;;;;;13.70;10.10;;;-2.00;99.90;;;;;;5032541;28;20922;-71
2023/12/04 08:22:52;;;;;;;12.67;9.23;;;-2.00;99.90;;;;;;5032521;28;20719;-71
2023/12/04 08:25:18;;;;;;;18.57;12.10;;;-2.30;99.90;;;;;;5032697;28;20791;-71
2023/12/04 08:27:43;;;;;;;16.70;12.40;;;-2.40;99.90;;;;;;5032201;28;20170;-71
2023/12/04 08:30:09;;;;;;;22.67;11.43;;;-2.40;99.90;;;;;;5032439;28;20174;-70
2023/12/04 08:32:35;;;;;;;13.70;9.90;;;-2.50;99.90;;;;;;5030816;28;20476;-71
2023/12/04 08:35:00;;;;;;;20.30;11.40;;;-2.50;99.90;;;;;;5032438;28;20257;-71
2023/12/04 08:37:26;;;;;;;13.30;9.93;;;-2.50;99.90;;;;;;5032099;28;20198;-71
2023/12/04 08:39:51;;;;;;;14.90;9.60;;;-2.50;99.90;;;;;;5032258;28;20559;-71
2023/12/04 08:42:18;;;;;;;13.20;9.90;;;-2.50;99.90;;;;;;5032177;28;20190;-71
2023/12/04 08:44:45;;;;;;;13.77;10.40;;;-2.30;99.90;;;;;;5032205;28;20194;-71
2023/12/04 08:47:11;;;;;;;14.23;9.07;;;-2.20;99.90;;;;;;5030077;28;20424;-71
2023/12/04 08:49:40;;;;;;;15.07;9.80;;;-2.00;99.90;;;;;;5031257;28;20467;-70
2023/12/04 08:52:06;;;;;;;12.70;8.90;;;-1.90;99.90;;;;;;5032050;28;20519;-70
2023/12/04 08:54:31;;;;;;;14.53;9.50;;;-1.80;99.90;;;;;;5032096;28;20444;-70
2023/12/04 08:56:57;;;;;;;15.50;10.20;;;-1.70;99.90;;;;;;5031695;28;20463;-70
2023/12/04 08:59:22;;;;;;;21.60;17.10;;;-1.70;99.90;;;;;;5031984;28;20210;-70
2023/12/04 09:01:48;;;;;;;11.27;9.17;;;-1.50;99.90;;;;;;5030322;28;20194;-70
2023/12/04 09:04:13;;;;;;;12.40;8.77;;;-1.50;99.90;;;;;;5031827;28;20379;-70
2023/12/04 09:06:39;;;;;;;12.80;8.17;;;-1.40;99.90;;;;;;5031732;28;20703;-70
2023/12/04 09:09:04;;;;;;;14.27;9.83;;;-1.40;99.90;;;;;;5032091;28;20224;-70
2023/12/04 09:11:30;;;;;;;12.67;9.47;;;-1.20;99.90;;;;;;5031857;28;20197;-70
2023/12/04 09:13:55;;;;;;;12.57;10.30;;;-1.10;99.90;;;;;;5031938;28;20181;-70
2023/12/04 09:16:21;;;;;;;14.40;10.27;;;-1.00;99.90;;;;;;5030771;28;20179;-70
2023/12/04 09:18:47;;;;;;;12.37;9.03;;;-0.90;99.90;;;;;;5031890;28;20181;-71
2023/12/04 09:21:12;;;;;;;12.13;8.90;;;-0.90;99.90;;;;;;5031757;28;20220;-71
2023/12/04 09:23:38;;;;;;;14.97;8.93;;;-1.00;99.90;;;;;;5031996;28;20539;-71
2023/12/04 09:26:04;;;;;;;12.03;8.77;;;-1.10;99.90;;;;;;5035790;28;20167;-71
2023/12/04 09:28:29;;;;;;;13.17;8.83;;;-1.10;99.90;;;;;;5035482;28;20174;-71
2023/12/04 09:30:55;;;;;;;17.23;10.07;;;-1.00;99.90;;;;;;5024477;28;20276;-71
2023/12/04 09:33:20;;;;;;;12.10;8.97;;;-1.00;99.90;;;;;;5015962;28;20205;-71
2023/12/04 09:35:46;;;;;;;11.70;8.47;;;-0.90;99.90;;;;;;5015740;28;20183;-71
2023/12/04 09:38:11;;;;;;;15.30;10.70;;;-0.90;99.90;;;;;;5015619;28;20241;-71
2023/12/04 09:40:37;;;;;;;11.73;9.57;;;-0.90;99.90;;;;;;5015959;28;20195;-71
2023/12/04 09:43:05;;;;;;;10.53;9.43;;;-0.90;99.90;;;;;;5015717;28;20198;-71
2023/12/04 09:45:32;;;;;;;12.77;8.67;;;-0.90;99.90;;;;;;5017056;28;20526;-72
2023/12/04 09:47:59;;;;;;;10.53;8.43;;;-0.90;99.90;;;;;;5027004;28;20490;-71
2023/12/04 09:50:25;;;;;;;10.50;8.13;;;-0.80;99.90;;;;;;5035441;28;20462;-71
2023/12/04 09:52:52;;;;;;;14.37;8.60;;;-0.80;99.90;;;;;;5035255;28;20440;-71
2023/12/04 09:55:17;;;;;;;11.33;8.83;;;-0.90;99.90;;;;;;5035264;28;20261;-71
2023/12/04 09:57:45;;;;;;;13.87;8.43;;;-0.90;99.90;;;;;;5034940;28;20583;-71
2023/12/04 10:00:12;;;;;;;12.03;10.00;;;-1.00;99.90;;;;;;5033596;28;20698;-71
2023/12/04 10:02:39;;;;;;;14.00;10.30;;;-0.90;99.90;;;;;;5034933;28;20459;-71
2023/12/04 10:05:06;;;;;;;10.47;8.13;;;-0.80;99.90;;;;;;5035045;28;20413;-71
2023/12/04 10:07:31;;;;;;;12.47;9.47;;;-0.50;99.90;;;;;;5034887;28;20416;-71
2023/12/04 10:09:57;;;;;;;14.17;8.77;;;-0.40;99.90;;;;;;5034941;28;20523;-71
2023/12/04 10:12:22;;;;;;;11.77;8.13;;;-0.30;99.90;;;;;;5034929;28;20269;-71
2023/12/04 10:15:11;;;;;;;13.90;10.20;;;-0.10;99.90;;;;;;5018830;28;20636;-71
2023/12/04 10:17:38;;;;;;;12.60;9.60;;;0.00;99.90;;;;;;5014887;28;20167;-71
2023/12/04 10:20:12;;;;;;;12.70;9.00;;;0.00;99.90;;;;;;5014991;28;20535;-72
2023/12/04 10:22:54;;;;;;;11.13;8.77;;;0.00;99.90;;;;;;5015020;28;20441;-71
2023/12/04 10:25:20;;;;;;;11.33;8.17;;;-0.20;99.90;;;;;;5015111;28;20421;-71
2023/12/04 10:27:47;;;;;;;11.07;8.33;;;-0.40;99.90;;;;;;5015878;28;20425;-71
2023/12/04 10:30:31;;;;;;;11.10;9.60;;;-0.50;99.90;;;;;;5014929;28;20513;-71
2023/12/04 10:33:02;;;;;;;14.70;8.77;;;-0.40;99.90;;;;;;5014764;28;20819;-71
2023/12/04 10:35:32;;;;;;;13.13;9.73;;;-0.30;99.90;;;;;;5013995;28;20418;-71
2023/12/04 10:38:02;;;;;;;13.47;9.80;;;-0.20;99.90;;;;;;5014475;28;20426;-72
2023/12/04 10:40:33;;;;;;;12.17;9.87;;;0.00;99.90;;;;;;5014683;28;20460;-71
2023/12/04 10:43:19;;;;;;;9.50;8.00;;;0.30;99.90;;;;;;5015719;28;20433;-71
2023/12/04 10:45:46;;;;;;;11.57;8.70;;;0.50;99.90;;;;;;5014596;28;20446;-71
2023/12/04 10:48:13;;;;;;;13.70;9.57;;;0.80;99.90;;;;;;5014333;28;20446;-71
2023/12/04 10:50:41;;;;;;;11.07;7.87;;;1.00;99.90;;;;;;5014462;28;20463;-72
2023/12/04 10:53:11;;;;;;;12.97;8.70;;;0.90;99.90;;;;;;5014464;28;20449;-71
2023/12/04 10:55:37;;;;;;;10.27;8.43;;;0.90;99.90;;;;;;5014479;28;20946;-72
2023/12/04 10:58:09;;;;;;;12.30;9.07;;;0.90;99.90;;;;;;5015188;28;20426;-72
2023/12/04 11:00:36;;;;;;;20.90;10.50;;;0.90;99.90;;;;;;5014284;28;20461;-72
2023/12/04 11:03:07;;;;;;;13.00;9.00;;;1.00;99.90;;;;;;5014103;28;20454;-72
2023/12/04 11:05:37;;;;;;;11.73;8.80;;;1.30;99.90;;;;;;5014443;28;20907;-72
2023/12/04 11:08:04;;;;;;;12.20;10.20;;;1.80;99.90;;;;;;5013677;28;20432;-72
2023/12/04 11:10:32;;;;;;;12.33;9.23;;;1.90;99.90;;;;;;5015187;28;20422;-72
2023/12/04 11:13:05;;;;;;;10.70;8.10;;;2.00;99.90;;;;;;5014064;28;20813;-72
2023/12/04 11:15:38;;;;;;;12.70;8.20;;;2.10;99.90;;;;;;5029285;28;20436;-72
2023/12/04 11:18:05;;;;;;;14.17;9.63;;;2.10;99.90;;;;;;5013862;28;20422;-72
2023/12/04 11:20:39;;;;;;;13.43;9.60;;;1.90;99.90;;;;;;5014015;28;20483;-72
2023/12/04 11:23:06;;;;;;;11.53;9.57;;;1.70;99.90;;;;;;5012641;28;20437;-72
2023/12/04 11:25:34;;;;;;;14.40;9.10;;;1.70;99.90;;;;;;5015032;28;20418;-72
2023/12/04 11:28:01;;;;;;;12.07;8.73;;;1.70;99.90;;;;;;5013658;28;20429;-73
2023/12/04 11:30:28;;;;;;;12.17;10.13;;;1.50;99.90;;;;;;5012494;28;20479;-72
2023/12/04 11:32:56;;;;;;;12.67;8.43;;;1.50;99.90;;;;;;5013712;28;20456;-72
2023/12/04 11:35:24;;;;;;;12.90;9.37;;;1.50;99.90;;;;;;5013606;28;20428;-73
2023/12/04 11:37:52;;;;;;;13.10;10.13;;;1.20;99.90;;;;;;5013350;28;20418;-73
2023/12/04 11:40:17;;;;;;;13.30;9.80;;;0.80;99.90;;;;;;5014635;28;20457;-73
2023/12/04 11:42:43;;;;;;;14.43;10.57;;;0.70;99.90;;;;;;5013566;28;20441;-74
2023/12/04 11:45:09;;;;;;;13.67;10.90;;;0.90;99.90;;;;;;5013804;28;20176;-74
2023/12/04 11:47:54;;;;;;;10.80;9.63;;;1.10;99.90;;;;;;5013087;28;20171;-74
2023/12/04 11:50:20;;;;;;;11.43;9.70;;;1.10;99.90;;;;;;5013681;28;20787;-74
2023/12/04 11:52:47;;;;;;;12.17;9.70;;;1.20;99.90;;;;;;5014461;28;20543;-75
2023/12/04 11:55:17;;;;;;;14.13;11.40;;;1.10;99.90;;;;;;5030128;28;21030;-75
2023/12/04 11:57:43;;;;;;;10.70;8.40;;;1.00;99.90;;;;;;5015689;28;20440;-73
2023/12/04 12:00:19;;;;;;;16.77;10.27;;;1.00;99.90;;;;;;5020197;28;20465;-76
2023/12/04 12:02:54;;;;;;;13.20;10.70;;;1.10;99.90;;;;;;5016165;28;20213;-76
2023/12/04 12:05:23;;;;;;;10.67;9.40;;;1.30;99.90;;;;;;5013194;28;20992;-75
2023/12/04 12:07:49;;;;;;;11.27;9.53;;;1.40;99.90;;;;;;5012759;28;20423;-76
2023/12/04 12:10:16;;;;;;;12.07;9.83;;;1.40;99.90;;;;;;5012782;28;20438;-75
2023/12/04 12:12:43;;;;;;;15.47;10.03;;;1.80;99.90;;;;;;5012927;28;20962;-76
2023/12/04 12:15:12;;;;;;;13.90;10.93;;;2.00;99.90;;;;;;5013075;28;20460;-76
2023/12/04 12:17:38;;;;;;;11.43;9.70;;;2.20;99.90;;;;;;5012917;28;20495;-76
2023/12/04 12:20:06;;;;;;;16.00;11.73;;;2.00;99.90;;;;;;5012895;28;20544;-76
2023/12/04 12:22:33;;;;;;;12.73;9.27;;;2.00;99.90;;;;;;5016323;28;20454;-76
2023/12/04 12:25:00;;;;;;;13.20;9.57;;;2.20;99.90;;;;;;5032583;28;20835;-76
2023/12/04 12:27:25;;;;;;;11.50;9.27;;;2.40;99.90;;;;;;5032114;28;20417;-75